METAR Data
IDs: Format: Raw Decoded Include TAF

Data at: 0123 UTC 24 Sep 2018

KFAT 240053Z 31010KT 10SM FEW150 FEW200 34/03 A2976 RMK AO2 SLP075 T03440033
KFAT 232353Z 31008KT 10SM SCT200 SCT250 35/06 A2977 RMK AO2 SLP077 T03500056 10356 20267 56020
KFAT 232253Z 28007KT 10SM FEW150 FEW200 SCT250 34/06 A2978 RMK AO2 SLP082 T03440056
KFAT 232153Z 28007KT 10SM FEW150 FEW200 SCT250 34/08 A2980 RMK AO2 SLP088 T03390083
KFAT 232053Z 32007KT 10SM FEW150 FEW200 SCT250 33/08 A2983 RMK AO2 SLP097 T03280083 58021
KFAT 231953Z 28005KT 10SM FEW150 FEW200 SCT250 31/09 A2986 RMK AO2 SLP106 T03060089
KFAT 231853Z VRB04KT 10SM FEW150 FEW200 SCT250 29/08 A2988 RMK AO2 SLP114 T02890083
KFAT 231753Z 15007KT 120V180 10SM FEW150 SCT200 SCT250 27/09 A2989 RMK AO2 SLP119 T02670094 10272 20172 50003
KFAT 231653Z 15009KT 10SM FEW150 SCT200 BKN250 24/09 A2991 RMK AO2 SLP124 T02440094
KFAT 231553Z 15006KT 9SM FEW150 SCT200 BKN250 22/10 A2989 RMK AO2 SLP119 T02170100
KFAT 231453Z 12005KT 10SM FEW150 SCT200 18/09 A2988 RMK AO2 SLP116 T01780089 53016
KFAT 231353Z 00000KT 10SM SCT070 SCT150 17/08 A2987 RMK AO2 SLP110 T01720083
KFAT 231253Z 15004KT 10SM CLR 18/08 A2985 RMK AO2 SLP106 T01830083
KFAT 231153Z 02003KT 10SM CLR 19/08 A2984 RMK AO2 SLP099 T01890083 10261 20189 55004
KFAT 231053Z 32005KT 10SM CLR 19/08 A2983 RMK AO2 SLP098 T01940083
KFAT 230953Z 31007KT 10SM CLR 20/09 A2984 RMK AO2 SLP101 T02000089
KFAT 230853Z 30006KT 10SM CLR 22/08 A2985 RMK AO2 SLP103 T02170083 50002
KFAT 230753Z 30005KT 10SM CLR 23/08 A2985 RMK AO2 SLP103 T02280078 403670167
KFAT 230653Z 30007KT 10SM CLR 24/08 A2985 RMK AO2 SLP104 T02390083
KFAT 230553Z 32007KT 10SM CLR 26/08 A2984 RMK AO2 SLP102 T02610078 10361 20256 51007
KFAT 230453Z 30009KT 10SM CLR 27/09 A2984 RMK AO2 SLP101 T02670094
KFAT 230353Z 31007KT 10SM CLR 29/10 A2983 RMK AO2 SLP099 T02890100
KFAT 230253Z 27005KT 10SM CLR 31/07 A2982 RMK AO2 SLP095 T03110067 55004
KFAT 230153Z 33005KT 10SM FEW060 FEW200 33/04 A2982 RMK AO2 SLP093 FU DSNT NW T03280044
KFAT 230053Z 33006KT 10SM FEW100 FEW150 FEW200 36/05 A2982 RMK AO2 SLP095 FU DSNT NW T03560050
KFAT 222353Z 33004KT 10SM FEW150 FEW200 36/04 A2983 RMK AO2 SLP099 T03610039 10367 20283 56022
KFAT 222253Z 31005KT 10SM FEW150 36/04 A2985 RMK AO2 SLP105 T03560039
KFAT 222153Z 00000KT 10SM FEW250 35/06 A2987 RMK AO2 SLP110 T03500056
KFAT 222053Z VRB05KT 10SM FEW250 34/05 A2990 RMK AO2 SLP120 T03390050 58021
KFAT 221953Z 18005KT 10SM FEW250 32/07 A2993 RMK AO2 SLP132 T03220072
KFAT 221853Z 14004KT 8SM CLR 31/08 A2995 RMK AO2 SLP138 T03060083
KFAT 221753Z 15007KT 8SM SCT200 28/08 A2996 RMK AO2 SLP142 T02830078 10283 20167 50003
KFAT 221653Z 14005KT 10SM SCT200 24/07 A2996 RMK AO2 SLP143 T02440072
KFAT 221553Z 16005KT 10SM SCT200 22/07 A2996 RMK AO2 SLP142 T02220067
KFAT 221453Z 00000KT 10SM SCT200 19/08 A2995 RMK AO2 SLP139 T01890078 53006
KFAT 221353Z 00000KT 10SM CLR 17/08 A2994 RMK AO2 SLP137 T01670083